Time;durP1;ratioP1;P1;durP2;ratioP2;P2;SDS_P1;SDS_P2;PMS_P1;PMS_P2;Temp;Humidity;BMP_temperature;BMP_pressure;BME280_temperature;BME280_humidity;BME280_pressure;Samples;Min_cycle;Max_cycle;Signal;HPM_P1;HPM_P2
2023/08/11 00:01:11;;;;;;;4.80;3.88;;;;;;;18.47;60.47;97694.91;4933494;28;20402;-81
2023/08/11 00:03:36;;;;;;;4.20;3.65;;;;;;;18.42;61.56;97702.06;4952599;28;20570;-82
2023/08/11 00:06:03;;;;;;;3.92;3.40;;;;;;;18.42;61.30;97700.22;4936332;28;20046;-81
2023/08/11 00:08:28;;;;;;;4.60;3.58;;;;;;;18.38;60.44;97695.78;4936898;28;20372;-82
2023/08/11 00:10:54;;;;;;;4.72;3.50;;;;;;;18.31;60.61;97696.91;4936515;28;20054;-82
2023/08/11 00:13:20;;;;;;;4.55;4.15;;;;;;;18.31;60.63;97702.19;4952412;28;20538;-82
2023/08/11 00:15:45;;;;;;;3.83;3.47;;;;;;;18.19;60.37;97687.84;4936583;28;20046;-81
2023/08/11 00:18:11;;;;;;;4.00;3.60;;;;;;;18.27;60.45;97698.53;4952404;28;20042;-82
2023/08/11 00:20:36;;;;;;;5.07;3.70;;;;;;;18.27;60.63;97695.13;4936546;28;20077;-80
2023/08/11 00:23:03;;;;;;;3.58;3.15;;;;;;;18.18;60.65;97699.44;4952186;28;20064;-82
2023/08/11 00:25:28;;;;;;;3.70;3.40;;;;;;;18.16;60.99;97697.06;4952756;28;20530;-83
2023/08/11 00:27:54;;;;;;;4.10;3.75;;;;;;;18.19;60.61;97709.69;4952644;28;20047;-76
2023/08/11 00:30:19;;;;;;;3.90;3.50;;;;;;;18.19;60.48;97695.75;4968335;28;20163;-76
2023/08/11 00:32:45;;;;;;;3.38;3.13;;;;;;;18.21;60.07;97697.03;4936265;28;20439;-75
2023/08/11 00:35:11;;;;;;;3.60;3.30;;;;;;;18.28;59.41;97696.69;4952204;28;20062;-75
2023/08/11 00:37:36;;;;;;;3.47;3.00;;;;;;;18.26;59.54;97698.81;4952955;28;20062;-75
2023/08/11 00:40:04;;;;;;;4.47;3.50;;;;;;;18.32;59.02;97697.72;4936073;28;20043;-75
2023/08/11 00:42:29;;;;;;;4.60;3.45;;;;;;;18.33;59.40;97700.06;4955009;28;20042;-75
2023/08/11 00:44:57;;;;;;;3.53;3.22;;;;;;;18.31;60.48;97701.41;4972566;28;20035;-76
2023/08/11 00:47:23;;;;;;;5.50;3.00;;;;;;;18.24;60.18;97690.41;4934732;28;20038;-75
2023/08/11 00:49:49;;;;;;;3.60;3.30;;;;;;;18.23;60.25;97694.91;4940300;28;20039;-75
2023/08/11 00:52:14;;;;;;;3.95;3.53;;;;;;;18.14;60.61;97691.31;4973293;28;20035;-75
2023/08/11 00:54:41;;;;;;;4.00;3.55;;;;;;;18.11;60.65;97687.41;4972472;28;20045;-75
2023/08/11 00:57:06;;;;;;;3.53;3.22;;;;;;;18.06;61.24;97686.66;4955995;28;20034;-75
2023/08/11 00:59:31;;;;;;;4.63;3.63;;;;;;;18.01;60.35;97676.97;4972362;28;20047;-75
2023/08/11 01:17:28;;;;;;;3.47;3.17;;;;;;;17.83;61.12;97664.47;5659818;23;20040;-87
2023/08/11 01:19:54;;;;;;;3.85;3.55;;;;;;;17.85;61.06;97670.25;4961819;29;20047;-87
2023/08/11 01:22:24;;;;;;;4.15;3.63;;;;;;;17.89;60.78;97676.53;5309972;23;20294;-86
2023/08/11 01:29:59;;;;;;;3.55;3.25;;;;;;;17.82;60.01;97668.16;5954490;23;20100;-86
2023/08/11 01:32:25;;;;;;;3.55;3.25;;;;;;;18.12;58.39;97678.41;4977436;28;20050;-88
2023/08/11 01:34:50;;;;;;;3.92;3.40;;;;;;;18.27;58.55;97680.09;4981711;28;20030;-86
2023/08/11 01:37:16;;;;;;;4.47;3.40;;;;;;;18.27;58.68;97680.09;4994493;28;20069;-88
2023/08/11 01:50:03;;;;;;;3.45;3.13;;;;;;;18.25;59.14;97673.53;5592797;23;20042;-86
2023/08/11 01:52:31;;;;;;;4.00;3.28;;;;;;;18.25;59.30;97678.78;5396456;23;20049;-87
2023/08/11 01:54:56;;;;;;;3.72;3.38;;;;;;;18.20;58.87;97674.38;4962573;28;20012;-86
2023/08/11 01:57:22;;;;;;;3.92;3.38;;;;;;;18.26;58.41;97672.47;4970485;28;20039;-87
2023/08/11 02:02:22;;;;;;;5.93;3.50;;;;;;;17.98;59.65;97660.94;5772682;23;20058;-86
2023/08/11 02:04:48;;;;;;;4.05;3.63;;;;;;;17.99;60.07;97663.25;4984830;28;20027;-86
2023/08/11 02:07:14;;;;;;;3.85;3.35;;;;;;;17.88;60.46;97661.81;4998670;28;20038;-86
2023/08/11 02:09:39;;;;;;;3.33;2.72;;;;;;;17.84;60.55;97653.66;5002268;28;20038;-87
2023/08/11 02:12:12;;;;;;;3.20;3.00;;;;;;;17.83;59.72;97659.97;4998894;28;20037;-88
2023/08/11 02:14:38;;;;;;;3.70;2.80;;;;;;;17.71;60.70;97657.72;4996951;28;20003;-89
2023/08/11 02:17:04;;;;;;;3.28;2.95;;;;;;;17.68;60.18;97658.28;4973444;28;20026;-87
2023/08/11 02:19:29;;;;;;;4.63;2.83;;;;;;;17.64;60.34;97659.13;4982031;28;20039;-86
2023/08/11 02:21:55;;;;;;;4.07;3.00;;;;;;;17.66;60.06;97655.16;4982907;28;20061;-87
2023/08/11 02:24:21;;;;;;;3.90;3.50;;;;;;;17.73;59.93;97654.81;5002692;28;20057;-88
2023/08/11 02:26:47;;;;;;;2.97;2.75;;;;;;;17.74;60.15;97646.66;5002496;28;20042;-87
2023/08/11 02:29:13;;;;;;;3.10;2.80;;;;;;;17.69;59.99;97659.09;4983943;28;20065;-88
2023/08/11 02:31:39;;;;;;;3.47;2.88;;;;;;;17.71;60.22;97655.09;4983002;28;20006;-87
2023/08/11 02:34:04;;;;;;;3.03;2.72;;;;;;;17.69;59.47;97643.28;4984730;28;20027;-89
2023/08/11 02:36:34;;;;;;;3.65;2.83;;;;;;;17.68;59.17;97625.91;5002763;28;20025;-86
2023/08/11 02:39:00;;;;;;;3.97;2.90;;;;;;;17.96;59.21;97661.22;4983738;28;20047;-85
2023/08/11 02:41:28;;;;;;;3.75;3.08;;;;;;;17.76;59.23;97657.69;4991686;28;20011;-87
2023/08/11 02:43:54;;;;;;;4.18;3.20;;;;;;;17.70;59.80;97653.53;4982779;28;20102;-89
2023/08/11 02:46:22;;;;;;;3.95;3.38;;;;;;;17.46;60.83;97635.06;4999861;28;20089;-88
2023/08/11 02:48:50;;;;;;;3.65;2.78;;;;;;;17.65;60.18;97643.06;4985417;28;20046;-87
2023/08/11 02:56:27;;;;;;;4.35;2.88;;;;;;;17.58;59.99;97646.00;5163454;23;19930;-88
2023/08/11 02:58:56;;;;;;;3.97;3.00;;;;;;;17.57;60.08;97664.72;4985098;28;20069;-88
2023/08/11 03:01:25;;;;;;;4.00;2.92;;;;;;;17.41;61.11;97664.84;4985023;28;20019;-87
2023/08/11 03:03:52;;;;;;;3.53;3.22;;;;;;;17.42;61.87;97679.56;4985499;28;20010;-88
2023/08/11 03:06:18;;;;;;;3.10;2.80;;;;;;;17.12;62.29;97648.22;4967978;28;20023;-89
2023/08/11 03:08:43;;;;;;;2.50;2.30;;;;;;;17.10;61.91;97655.63;4976017;28;20066;-88
2023/08/11 03:11:09;;;;;;;4.28;3.05;;;;;;;17.22;62.35;97690.25;4959465;29;20046;-88
2023/08/11 03:13:35;;;;;;;3.30;3.00;;;;;;;17.18;62.00;97682.13;4963215;28;20026;-87
2023/08/11 03:16:00;;;;;;;3.63;3.03;;;;;;;16.98;62.46;97663.84;4983524;28;20039;-88
2023/08/11 03:18:26;;;;;;;4.35;3.40;;;;;;;17.10;62.45;97689.81;4976111;28;20031;-87
2023/08/11 03:20:54;;;;;;;5.65;3.50;;;;;;;17.07;62.36;97685.91;4976148;28;20090;-88
2023/08/11 03:23:20;;;;;;;3.53;3.22;;;;;;;16.97;62.48;97673.59;4970003;28;20474;-88
2023/08/11 03:25:45;;;;;;;3.30;3.00;;;;;;;16.92;62.62;97672.84;4977504;28;20043;-89
2023/08/11 03:28:11;;;;;;;3.70;3.28;;;;;;;16.79;62.97;97669.75;4959324;28;20103;-87
2023/08/11 03:30:36;;;;;;;3.53;3.22;;;;;;;16.60;63.40;97651.16;4961585;28;20050;-86
2023/08/11 03:33:03;;;;;;;3.83;3.38;;;;;;;16.61;63.47;97660.63;4964032;28;20497;-87
2023/08/11 03:35:29;;;;;;;4.78;3.08;;;;;;;16.76;63.46;97685.25;4968268;29;20034;-87
2023/08/11 03:37:54;;;;;;;3.40;3.10;;;;;;;16.73;64.29;97677.94;4960410;29;20071;-87
2023/08/11 03:40:20;;;;;;;3.78;3.47;;;;;;;16.62;64.58;97674.56;4958353;28;20043;-86
2023/08/11 03:42:45;;;;;;;4.53;3.17;;;;;;;16.66;64.94;97670.34;4972759;29;20043;-87
2023/08/11 03:45:12;;;;;;;4.00;3.60;;;;;;;16.80;64.08;97686.31;4970631;29;20047;-86
2023/08/11 03:47:39;;;;;;;4.25;3.25;;;;;;;16.57;64.40;97643.84;4950482;29;20055;-87
2023/08/11 03:50:06;;;;;;;3.60;3.30;;;;;;;16.65;63.83;97656.38;4953561;28;20035;-87
2023/08/11 03:52:32;;;;;;;3.97;3.58;;;;;;;16.75;63.75;97673.97;4952433;29;20147;-87
2023/08/11 03:54:57;;;;;;;4.18;3.08;;;;;;;16.79;63.95;97680.25;4952509;28;20027;-87
2023/08/11 03:57:23;;;;;;;3.50;3.20;;;;;;;16.73;64.04;97667.41;4955744;28;20027;-86
2023/08/11 03:59:48;;;;;;;3.42;3.13;;;;;;;16.79;63.71;97661.06;4960618;29;20063;-87
2023/08/11 04:02:13;;;;;;;3.72;3.28;;;;;;;17.00;63.58;97683.59;4971357;28;20091;-87
2023/08/11 04:04:39;;;;;;;3.30;2.90;;;;;;;16.99;63.01;97678.59;4966697;28;20027;-86
2023/08/11 04:07:05;;;;;;;3.50;3.10;;;;;;;16.83;63.60;97654.22;4951562;28;20070;-87
2023/08/11 04:09:30;;;;;;;3.92;3.25;;;;;;;16.98;64.12;97672.56;4960141;28;20039;-87
2023/08/11 04:11:56;;;;;;;3.17;2.88;;;;;;;16.97;63.08;97673.59;4966927;28;20042;-87
2023/08/11 04:14:22;;;;;;;3.67;3.38;;;;;;;16.85;63.38;97658.16;4961489;28;20035;-87
2023/08/11 04:16:47;;;;;;;3.17;2.88;;;;;;;16.99;63.52;97682.00;4955041;29;20062;-87
2023/08/11 04:19:13;;;;;;;4.13;3.08;;;;;;;16.95;63.43;97677.56;4955037;28;20035;-87
2023/08/11 04:21:40;;;;;;;2.88;2.67;;;;;;;16.99;63.20;97684.63;4969113;28;20126;-87
2023/08/11 04:24:06;;;;;;;3.22;2.83;;;;;;;16.89;62.94;97668.91;4962018;29;20082;-87
2023/08/11 04:26:33;;;;;;;3.95;2.90;;;;;;;16.93;63.14;97691.00;4962637;28;20537;-87
2023/08/11 04:28:58;;;;;;;4.95;3.17;;;;;;;16.82;63.30;97671.03;4969540;28;20277;-87
2023/08/11 04:31:24;;;;;;;4.13;2.97;;;;;;;16.97;62.94;97691.25;4952692;28;20043;-87
2023/08/11 04:33:49;;;;;;;3.58;3.17;;;;;;;16.99;63.67;97692.53;4957585;29;20037;-86
2023/08/11 04:36:14;;;;;;;5.47;3.47;;;;;;;16.97;63.64;97684.13;4969564;28;20035;-87
2023/08/11 04:38:41;;;;;;;3.40;3.10;;;;;;;17.08;63.52;97691.94;4960690;29;20484;-87
2023/08/11 04:41:09;;;;;;;3.53;2.72;;;;;;;17.06;63.09;97688.81;4951120;28;20071;-87
2023/08/11 04:43:35;;;;;;;3.00;2.70;;;;;;;16.98;63.46;97669.13;4960231;29;20031;-87
2023/08/11 04:46:00;;;;;;;4.15;3.15;;;;;;;17.08;63.58;97670.91;4950196;28;20520;-87
2023/08/11 04:48:25;;;;;;;3.40;3.10;;;;;;;17.14;63.07;97669.81;4946959;29;20036;-86
2023/08/11 04:50:52;;;;;;;3.00;2.80;;;;;;;17.22;63.60;97687.63;4966380;28;20059;-87
2023/08/11 04:53:17;;;;;;;4.63;3.13;;;;;;;17.22;64.04;97682.38;4951213;28;20137;-87
2023/08/11 04:55:56;;;;;;;3.50;3.20;;;;;;;17.32;63.67;97684.91;4958575;29;20035;-86
2023/08/11 04:58:22;;;;;;;4.80;3.10;;;;;;;17.16;63.88;97663.19;4975680;28;20035;-86
2023/08/11 05:00:48;;;;;;;3.35;3.05;;;;;;;17.37;63.55;97686.72;4989072;28;20035;-87
2023/08/11 05:03:13;;;;;;;14.52;3.70;;;;;;;17.25;63.84;97660.75;4980355;28;20031;-87
2023/08/11 05:05:39;;;;;;;2.97;2.75;;;;;;;17.42;63.81;97687.47;4960403;28;20043;-87
2023/08/11 05:08:05;;;;;;;3.42;3.00;;;;;;;17.37;63.67;97674.34;4945830;28;20063;-86
2023/08/11 05:10:31;;;;;;;3.25;3.00;;;;;;;17.49;63.47;97689.78;4944080;28;20027;-87
2023/08/11 05:12:56;;;;;;;3.75;2.85;;;;;;;17.48;63.44;97684.78;4961126;28;20791;-87
2023/08/11 05:15:22;;;;;;;3.20;2.75;;;;;;;17.51;63.91;97678.97;4947492;28;20092;-88
2023/08/11 05:17:48;;;;;;;3.22;2.92;;;;;;;17.60;63.73;97696.53;4961580;28;20038;-87
2023/08/11 05:20:15;;;;;;;5.18;3.20;;;;;;;17.65;63.82;97692.28;4965652;28;20332;-87
2023/08/11 05:22:40;;;;;;;3.25;3.05;;;;;;;17.75;63.33;97692.19;4962116;29;20035;-87
2023/08/11 05:25:06;;;;;;;3.50;3.20;;;;;;;17.88;63.18;97693.44;4963300;28;20040;-87
2023/08/11 05:27:31;;;;;;;3.38;3.08;;;;;;;17.94;62.53;97694.94;4947230;28;20054;-87
2023/08/11 05:29:57;;;;;;;4.13;3.22;;;;;;;17.81;61.90;97674.50;4968417;28;20045;-86
2023/08/11 05:32:26;;;;;;;3.28;2.97;;;;;;;18.01;61.00;97698.03;4954920;28;20073;-86
2023/08/11 05:34:52;;;;;;;3.65;3.20;;;;;;;18.05;60.79;97700.91;4951939;29;20039;-87
2023/08/11 05:37:18;;;;;;;3.30;3.00;;;;;;;18.06;61.22;97692.72;4938557;28;20483;-86
2023/08/11 05:39:43;;;;;;;3.88;3.33;;;;;;;18.02;61.61;97685.66;4963334;28;20030;-87
2023/08/11 05:42:08;;;;;;;3.45;3.15;;;;;;;18.03;60.76;97680.09;4966888;28;20038;-88
2023/08/11 05:44:34;;;;;;;3.47;3.17;;;;;;;18.20;60.03;97706.00;4948031;28;20022;-87
2023/08/11 05:47:00;;;;;;;3.92;3.03;;;;;;;18.26;60.23;97704.88;4979733;28;20038;-89
2023/08/11 05:49:25;;;;;;;4.40;3.35;;;;;;;18.31;59.92;97701.41;4965801;28;20037;-87
2023/08/11 05:51:51;;;;;;;3.38;2.95;;;;;;;18.27;59.47;97687.22;4941914;29;20058;-87
2023/08/11 05:54:16;;;;;;;3.17;2.95;;;;;;;18.45;59.51;97701.50;4935953;29;20471;-87
2023/08/11 05:56:42;;;;;;;3.30;3.03;;;;;;;18.52;60.17;97696.66;4946442;28;20118;-87
2023/08/11 05:59:07;;;;;;;3.80;3.13;;;;;;;18.59;60.86;97702.38;4953802;28;20066;-87
2023/08/11 06:01:33;;;;;;;3.58;3.13;;;;;;;18.76;60.70;97696.59;4942247;29;20035;-88
2023/08/11 06:03:58;;;;;;;3.42;3.13;;;;;;;18.96;61.36;97705.38;4953313;28;20411;-88
2023/08/11 06:06:24;;;;;;;3.75;3.45;;;;;;;19.07;61.25;97702.28;4940465;29;20042;-88
2023/08/11 06:08:49;;;;;;;3.50;3.13;;;;;;;19.25;61.28;97702.56;4954597;28;20532;-87
2023/08/11 06:11:14;;;;;;;3.38;2.90;;;;;;;19.39;60.95;97692.81;4954879;28;20128;-87
2023/08/11 06:13:40;;;;;;;3.53;3.13;;;;;;;19.54;61.49;97688.38;4960889;28;20533;-87
2023/08/11 06:16:05;;;;;;;3.35;3.03;;;;;;;19.75;61.42;97700.19;4943909;28;20055;-87
2023/08/11 06:18:30;;;;;;;3.67;3.28;;;;;;;19.90;60.64;97695.72;4961584;28;20081;-87
2023/08/11 06:20:56;;;;;;;3.80;3.40;;;;;;;20.08;59.58;97694.81;4988863;28;20207;-87
2023/08/11 06:23:21;;;;;;;3.30;3.00;;;;;;;20.29;58.53;97703.16;4948734;28;20067;-87
2023/08/11 06:25:47;;;;;;;3.42;3.08;;;;;;;20.48;57.93;97704.94;4962754;29;20073;-88
2023/08/11 06:28:12;;;;;;;4.30;2.95;;;;;;;20.46;56.84;97683.25;4968940;28;20014;-87
2023/08/11 06:30:38;;;;;;;3.17;2.97;;;;;;;20.72;55.79;97702.84;4974588;28;20034;-87
2023/08/11 06:33:04;;;;;;;3.05;2.83;;;;;;;20.75;54.84;97681.09;4967328;28;20391;-87
2023/08/11 06:35:29;;;;;;;3.15;2.50;;;;;;;20.94;53.85;97685.47;4956808;29;20070;-89
2023/08/11 06:37:55;;;;;;;3.50;2.72;;;;;;;21.22;53.55;97702.00;4977475;28;20047;-88
2023/08/11 06:40:20;;;;;;;3.30;2.60;;;;;;;21.44;51.80;97714.47;4959978;28;20125;-88
2023/08/11 06:42:46;;;;;;;2.55;2.35;;;;;;;21.55;52.78;97707.09;4966476;29;20035;-88
2023/08/11 06:45:11;;;;;;;2.58;2.38;;;;;;;21.75;52.73;97705.81;4971688;28;20041;-87
2023/08/11 06:47:37;;;;;;;3.58;2.75;;;;;;;21.83;53.05;97693.66;4975129;28;20030;-88
2023/08/11 06:50:05;;;;;;;2.63;2.42;;;;;;;22.04;52.06;97704.53;4971917;28;20047;-87
2023/08/11 06:52:33;;;;;;;2.83;2.40;;;;;;;22.37;52.35;97715.56;4954266;28;20027;-89
2023/08/11 06:54:59;;;;;;;3.08;2.78;;;;;;;22.56;51.84;97725.16;4955728;28;20031;-89
2023/08/11 06:57:24;;;;;;;2.78;2.58;;;;;;;22.74;51.08;97720.66;4945469;29;20534;-89
2023/08/11 06:59:49;;;;;;;2.97;2.78;;;;;;;22.87;50.93;97719.72;5050056;23;20155;-87
2023/08/11 07:02:15;;;;;;;4.05;3.05;;;;;;;23.04;51.32;97724.28;4945616;28;20058;-87
2023/08/11 07:04:41;;;;;;;3.20;2.90;;;;;;;22.93;50.93;97713.19;4964066;28;20125;-87
2023/08/11 07:07:06;;;;;;;3.38;3.03;;;;;;;23.11;52.15;97734.47;4961436;28;20440;-87
2023/08/11 07:09:33;;;;;;;3.85;3.00;;;;;;;23.02;51.72;97718.50;4962172;28;20057;-87
2023/08/11 07:11:58;;;;;;;3.47;3.17;;;;;;;23.18;51.21;97721.47;4960301;28;20081;-87
2023/08/11 07:14:24;;;;;;;3.10;2.80;;;;;;;23.56;50.62;97740.22;4959349;28;20035;-87
2023/08/11 07:16:49;;;;;;;2.95;2.75;;;;;;;23.78;50.20;97738.44;4943008;28;20034;-87
2023/08/11 07:19:15;;;;;;;3.55;2.72;;;;;;;23.80;49.04;97728.25;4944959;28;20123;-87
2023/08/11 07:21:40;;;;;;;4.05;2.85;;;;;;;24.00;48.89;97732.13;4980069;28;20042;-87
2023/08/11 07:24:06;;;;;;;2.70;2.50;;;;;;;23.97;47.62;97732.78;4964238;28;20466;-88
2023/08/11 07:26:31;;;;;;;3.13;2.83;;;;;;;24.12;47.35;97734.91;4964469;28;20054;-87
2023/08/11 07:28:57;;;;;;;3.42;2.95;;;;;;;24.34;47.65;97727.00;4964112;28;20030;-87
2023/08/11 07:31:22;;;;;;;2.85;2.65;;;;;;;24.59;47.46;97731.44;4962904;28;20030;-87
2023/08/11 07:33:48;;;;;;;2.65;2.47;;;;;;;24.69;46.51;97730.25;4963605;28;20029;-87
2023/08/11 07:36:14;;;;;;;3.00;2.80;;;;;;;24.74;46.65;97706.09;4948764;28;20054;-87
2023/08/11 07:38:40;;;;;;;3.33;3.10;;;;;;;25.08;46.41;97736.25;4981523;28;20030;-87
2023/08/11 07:41:05;;;;;;;2.60;2.33;;;;;;;25.31;45.19;97733.28;4962958;28;20045;-87
2023/08/11 07:43:31;;;;;;;3.08;2.80;;;;;;;25.53;44.69;97734.78;4962090;28;20038;-87
2023/08/11 07:45:56;;;;;;;2.88;2.67;;;;;;;25.53;43.18;97722.25;4978139;28;20035;-87
2023/08/11 07:48:22;;;;;;;2.85;2.65;;;;;;;25.75;42.50;97742.41;4959452;28;20034;-87
2023/08/11 07:50:53;;;;;;;3.05;2.85;;;;;;;25.97;43.08;97733.25;4972785;28;20113;-88
2023/08/11 07:53:18;;;;;;;3.33;2.53;;;;;;;25.91;42.83;97741.78;4960226;28;20478;-87
2023/08/11 07:55:45;;;;;;;2.75;2.30;;;;;;;25.97;42.15;97737.81;4960798;28;20029;-87
2023/08/11 07:58:10;;;;;;;4.55;3.00;;;;;;;26.25;42.59;97729.97;4960397;28;20398;-87
2023/08/11 08:00:36;;;;;;;3.05;2.53;;;;;;;26.33;42.79;97729.03;4953711;28;20045;-87
2023/08/11 08:03:01;;;;;;;2.60;2.40;;;;;;;26.66;42.74;97744.16;4960034;28;20045;-87
2023/08/11 08:05:27;;;;;;;2.40;2.20;;;;;;;26.61;42.72;97725.69;4961203;28;20026;-87
2023/08/11 08:07:52;;;;;;;3.60;2.45;;;;;;;26.67;42.55;97748.41;4975895;28;20497;-87
2023/08/11 08:10:20;;;;;;;4.53;2.85;;;;;;;26.86;42.15;97747.06;4959308;28;20030;-87
2023/08/11 08:12:45;;;;;;;2.78;2.58;;;;;;;27.19;42.00;97757.53;4961394;28;20037;-87
2023/08/11 08:15:12;;;;;;;3.05;2.70;;;;;;;27.34;42.14;97757.97;4976484;28;20027;-87
2023/08/11 08:17:38;;;;;;;3.05;2.72;;;;;;;27.51;41.30;97751.53;4967803;28;20030;-87
2023/08/11 08:20:05;;;;;;;3.15;2.70;;;;;;;27.62;41.10;97747.22;4978004;28;20038;-87
2023/08/11 08:22:32;;;;;;;2.88;2.63;;;;;;;27.80;41.17;97732.41;4961375;28;20453;-87
2023/08/11 08:24:58;;;;;;;3.42;2.65;;;;;;;28.16;40.75;97744.03;4946131;28;20402;-87
2023/08/11 08:27:24;;;;;;;2.47;2.30;;;;;;;28.20;39.84;97742.19;4957953;28;20035;-87
2023/08/11 08:29:51;;;;;;;3.22;2.80;;;;;;;27.96;40.42;97731.69;4960745;28;20045;-87
2023/08/11 08:32:17;;;;;;;2.67;2.47;;;;;;;28.41;38.99;97751.84;4973623;28;20166;-87
2023/08/11 08:34:43;;;;;;;4.05;2.80;;;;;;;28.53;40.54;97746.41;4996004;28;20494;-87
2023/08/11 08:37:08;;;;;;;2.70;2.50;;;;;;;28.71;39.20;97746.03;4965854;28;20035;-87
2023/08/11 08:39:34;;;;;;;2.63;2.53;;;;;;;28.86;39.50;97736.41;4961009;28;20059;-88
2023/08/11 08:42:01;;;;;;;2.95;2.75;;;;;;;29.15;38.16;97743.13;4967159;28;20035;-87
2023/08/11 08:44:27;;;;;;;3.08;2.75;;;;;;;29.33;39.26;97754.22;5001421;28;20057;-86
2023/08/11 08:46:53;;;;;;;2.97;2.78;;;;;;;29.46;37.80;97746.81;4981990;28;20035;-86
2023/08/11 08:49:23;;;;;;;3.17;2.78;;;;;;;29.47;38.47;97748.34;4991505;28;20057;-87
2023/08/11 08:54:19;;;;;;;3.00;2.80;;;;;;;29.90;37.44;97732.25;4957629;28;20074;-87
2023/08/11 08:56:45;;;;;;;3.05;2.85;;;;;;;30.14;36.68;97741.84;4904602;29;20031;-87
2023/08/11 08:59:11;;;;;;;3.60;3.30;;;;;;;30.24;37.17;97738.53;4941969;29;20040;-86
2023/08/11 09:06:43;;;;;;;2.88;2.70;;;;;;;30.66;35.45;97729.56;5147651;23;20038;-86
2023/08/11 09:09:09;;;;;;;2.90;2.60;;;;;;;30.71;34.77;97740.00;4960963;28;20045;-85
2023/08/11 09:11:34;;;;;;;2.80;2.50;;;;;;;30.75;35.30;97734.69;4974969;28;20042;-82
2023/08/11 09:14:04;;;;;;;3.33;3.13;;;;;;;30.87;35.69;97739.81;4973987;28;20446;-86
2023/08/11 09:16:31;;;;;;;3.10;2.90;;;;;;;30.85;35.04;97730.59;4940887;28;20098;-84
2023/08/11 09:18:57;;;;;;;3.00;2.80;;;;;;;31.08;33.94;97736.63;4990649;28;20257;-85
2023/08/11 09:21:24;;;;;;;3.25;3.05;;;;;;;30.97;35.10;97733.84;5040150;23;20018;-85
2023/08/11 09:23:52;;;;;;;2.88;2.67;;;;;;;30.87;35.97;97739.81;5007804;28;20038;-86
2023/08/11 09:26:22;;;;;;;3.17;2.97;;;;;;;31.39;34.50;97742.75;4980020;28;20119;-85
2023/08/11 09:28:49;;;;;;;3.30;3.00;;;;;;;31.21;34.31;97725.66;4977410;28;20039;-86
2023/08/11 09:31:14;;;;;;;3.00;2.80;;;;;;;31.28;33.23;97736.50;5013752;23;20047;-86
2023/08/11 09:33:40;;;;;;;4.07;3.00;;;;;;;31.51;33.81;97731.78;4973994;28;20404;-86
2023/08/11 09:36:05;;;;;;;2.67;2.42;;;;;;;31.47;33.09;97730.16;4963929;28;20131;-85
2023/08/11 09:38:31;;;;;;;2.80;2.60;;;;;;;31.41;33.17;97724.34;4962758;29;20106;-86
2023/08/11 09:41:03;;;;;;;3.08;2.72;;;;;;;31.69;33.26;97728.47;4973558;28;20122;-86
2023/08/11 09:43:30;;;;;;;3.28;2.65;;;;;;;31.77;33.23;97735.44;4950411;28;20035;-86
2023/08/11 09:45:55;;;;;;;3.10;2.85;;;;;;;31.67;32.62;97730.75;4975158;28;20047;-85
2023/08/11 09:48:22;;;;;;;2.95;2.72;;;;;;;31.69;32.34;97733.84;4930423;29;20039;-86
2023/08/11 09:50:48;;;;;;;2.83;2.65;;;;;;;31.73;32.67;97732.72;4949649;29;20133;-86
2023/08/11 09:53:15;;;;;;;3.05;2.75;;;;;;;31.27;34.02;97724.94;4959442;28;20071;-86
2023/08/11 09:55:43;;;;;;;2.92;2.72;;;;;;;31.52;33.62;97732.53;4960868;28;20582;-86
2023/08/11 09:58:11;;;;;;;4.22;2.90;;;;;;;31.80;33.86;97725.88;4983238;28;20037;-84
2023/08/11 10:00:38;;;;;;;2.83;2.63;;;;;;;32.09;34.42;97733.06;4962261;28;20039;-85
2023/08/11 10:03:34;;;;;;;2.92;2.72;;;;;;;32.47;34.13;97732.91;4944984;29;20011;-86
2023/08/11 10:06:01;;;;;;;3.20;3.00;;;;;;;32.32;34.12;97718.59;4942616;28;20054;-86
2023/08/11 10:08:29;;;;;;;3.20;3.00;;;;;;;32.66;31.94;97713.03;4971261;28;20077;-86
2023/08/11 10:10:54;;;;;;;3.40;3.20;;;;;;;32.77;31.31;97723.88;4974417;28;20038;-86
2023/08/11 10:13:26;;;;;;;3.70;3.00;;;;;;;32.98;31.66;97723.19;4939925;28;20047;-85
2023/08/11 10:15:53;;;;;;;3.30;3.10;;;;;;;33.08;31.54;97714.34;4959248;28;20109;-86
2023/08/11 10:18:20;;;;;;;3.42;3.22;;;;;;;33.08;32.46;97700.09;4968524;28;20450;-86
2023/08/11 10:20:50;;;;;;;3.63;3.42;;;;;;;32.90;32.37;97708.13;4966364;29;20038;-85
2023/08/11 10:23:17;;;;;;;4.07;3.17;;;;;;;32.67;34.21;97709.94;5007310;23;20053;-86
2023/08/11 10:25:45;;;;;;;3.00;2.90;;;;;;;32.78;32.71;97709.22;4996945;28;20042;-85
2023/08/11 10:28:12;;;;;;;2.83;2.63;;;;;;;33.16;32.73;97707.84;4966628;28;20314;-86
2023/08/11 10:30:38;;;;;;;3.13;2.80;;;;;;;33.56;32.77;97710.63;4987141;28;20069;-85
2023/08/11 10:33:06;;;;;;;3.10;2.88;;;;;;;33.67;31.34;97711.44;4994491;28;20030;-84
2023/08/11 10:35:49;;;;;;;3.25;3.00;;;;;;;34.02;30.93;97701.03;4974825;28;20066;-87
2023/08/11 10:38:33;;;;;;;2.97;2.85;;;;;;;34.15;31.48;97688.63;4975654;28;20038;-85
2023/08/11 10:41:09;;;;;;;3.07;2.87;;;;;;;33.96;30.99;97692.53;4959500;28;20034;-86
2023/08/11 10:43:41;;;;;;;3.33;3.13;;;;;;;34.22;32.15;97696.75;4995870;28;20030;-89
2023/08/11 10:46:26;;;;;;;3.47;2.90;;;;;;;34.35;29.97;97690.97;4973748;28;20031;-83
2023/08/11 10:48:54;;;;;;;3.15;2.95;;;;;;;34.36;30.22;97693.28;4991721;28;20034;-84
2023/08/11 10:51:24;;;;;;;3.38;3.17;;;;;;;34.46;30.81;97684.38;4979609;28;20402;-86
2023/08/11 10:53:49;;;;;;;3.08;2.88;;;;;;;34.53;30.70;97697.06;4963672;28;20037;-85
2023/08/11 10:56:14;;;;;;;3.38;3.08;;;;;;;34.83;31.74;97672.25;4977974;28;20422;-86
2023/08/11 10:58:40;;;;;;;3.15;2.95;;;;;;;35.18;31.17;97689.50;4976373;28;20042;-85
2023/08/11 11:01:05;;;;;;;3.47;3.20;;;;;;;35.19;28.54;97699.13;4955165;28;20030;-84
2023/08/11 11:03:31;;;;;;;2.90;2.70;;;;;;;35.01;29.07;97683.00;4978627;28;20539;-84
2023/08/11 11:05:57;;;;;;;3.30;3.10;;;;;;;34.86;29.55;97698.53;4939341;28;20023;-83
2023/08/11 11:08:22;;;;;;;4.82;2.97;;;;;;;34.73;31.52;97689.31;4954621;28;20141;-85
2023/08/11 11:10:48;;;;;;;4.45;3.10;;;;;;;35.14;29.96;97688.72;4961254;28;20035;-86
2023/08/11 11:13:13;;;;;;;2.97;2.78;;;;;;;35.19;29.75;97688.31;4974166;28;20046;-85
2023/08/11 11:15:39;;;;;;;2.88;2.67;;;;;;;35.39;28.94;97677.00;4975191;28;20035;-85
2023/08/11 11:18:05;;;;;;;3.25;2.95;;;;;;;35.57;29.68;97683.03;4973583;28;20039;-86
2023/08/11 11:20:33;;;;;;;3.42;3.22;;;;;;;35.40;28.42;97659.56;4968014;28;20561;-85
2023/08/11 11:22:58;;;;;;;3.03;2.63;;;;;;;35.17;28.67;97679.81;4960722;28;20435;-86
2023/08/11 11:25:23;;;;;;;3.13;3.00;;;;;;;34.95;27.46;97678.41;4954080;28;20035;-84
2023/08/11 11:27:49;;;;;;;3.13;2.92;;;;;;;34.84;29.51;97673.81;4957932;28;20039;-85
2023/08/11 11:30:15;;;;;;;3.08;2.88;;;;;;;34.54;30.28;97687.03;4963393;28;20123;-87
2023/08/11 11:32:42;;;;;;;3.40;3.20;;;;;;;34.56;30.42;97658.44;4929678;29;20039;-86
2023/08/11 11:35:08;;;;;;;2.60;2.40;;;;;;;34.34;31.02;97671.25;4939607;28;20027;-86
2023/08/11 11:37:34;;;;;;;2.95;2.80;;;;;;;34.14;31.95;97666.25;4972351;28;20031;-86
2023/08/11 11:40:04;;;;;;;3.03;2.72;;;;;;;34.06;31.94;97690.97;4973360;28;20562;-86
2023/08/11 11:42:30;;;;;;;3.33;3.13;;;;;;;33.72;29.90;97675.94;4951666;28;20062;-85
2023/08/11 11:44:56;;;;;;;3.08;2.88;;;;;;;33.84;30.83;97695.63;4973346;28;20039;-87
2023/08/11 11:47:22;;;;;;;3.20;3.00;;;;;;;34.15;29.96;97702.94;4991672;28;20042;-86
2023/08/11 11:49:54;;;;;;;3.20;3.00;;;;;;;34.27;31.87;97692.91;4956420;28;20058;-85
2023/08/11 11:52:20;;;;;;;3.33;3.05;;;;;;;34.15;30.72;97689.44;4964448;28;20039;-86
2023/08/11 11:54:50;;;;;;;3.28;3.05;;;;;;;34.37;31.38;97684.00;4946356;29;20035;-86
2023/08/11 11:57:16;;;;;;;3.28;3.08;;;;;;;34.68;30.79;97686.97;4950683;28;20034;-87
2023/08/11 11:59:41;;;;;;;3.22;3.03;;;;;;;35.15;30.87;97679.44;4979412;28;20063;-87
2023/08/11 12:02:07;;;;;;;3.17;2.97;;;;;;;35.31;30.06;97680.94;4947737;28;20506;-86
2023/08/11 12:04:32;;;;;;;3.30;3.10;;;;;;;35.71;28.66;97679.44;4967351;28;20039;-85
2023/08/11 12:06:57;;;;;;;3.35;3.15;;;;;;;35.82;28.57;97673.97;4948620;29;20031;-84
2023/08/11 12:09:23;;;;;;;3.28;3.08;;;;;;;36.14;27.77;97675.59;4942732;29;20035;-85
2023/08/11 12:11:49;;;;;;;3.42;3.13;;;;;;;36.20;28.62;97671.28;4952149;28;20490;-86
2023/08/11 12:14:14;;;;;;;2.92;2.70;;;;;;;36.40;25.61;97674.22;4970898;28;20406;-86
2023/08/11 12:16:41;;;;;;;3.10;3.00;;;;;;;36.53;26.29;97679.88;4956280;28;20498;-85